Time;durP1;ratioP1;P1;durP2;ratioP2;P2;SDS_P1;SDS_P2;PMS_P1;PMS_P2;Temp;Humidity;BMP_temperature;BMP_pressure;BME280_temperature;BME280_humidity;BME280_pressure;Samples;Min_cycle;Max_cycle;Signal;HPM_P1;HPM_P2
2022/06/04 05:33:42;;;;;;;;;;;;;;;19.57;100.00;98672.38;5196544;23;19978;-73
2022/06/04 05:36:10;;;;;;;;;;;;;;;19.74;100.00;98675.94;4903040;29;19948;-74
2022/06/04 05:38:37;;;;;;;;;;;;;;;19.82;100.00;98685.06;4904624;29;19960;-73
2022/06/04 05:41:07;;;;;;;;;;;;;;;19.90;100.00;98669.41;4918021;29;19960;-73
2022/06/04 05:43:35;;;;;;;;;;;;;;;20.01;100.00;98684.84;4894839;29;19950;-73
2022/06/04 05:46:06;;;;;;;;;;;;;;;20.08;100.00;98692.34;4921207;29;19953;-74
2022/06/04 05:48:38;;;;;;;;;;;;;;;20.12;100.00;98698.75;4921297;29;19953;-74
2022/06/04 05:51:05;;;;;;;;;;;;;;;20.15;100.00;98695.78;4911452;29;19963;-73
2022/06/04 05:53:33;;;;;;;;;;;;;;;20.20;100.00;98692.38;4917349;29;20291;-74
2022/06/04 05:56:00;;;;;;;;;;;;;;;20.25;100.00;98689.00;4905874;29;19961;-74
2022/06/04 05:58:27;;;;;;;;;;;;;;;20.28;100.00;98682.44;4903850;29;19953;-74
2022/06/04 06:00:58;;;;;;;;;;;;;;;20.38;100.00;98685.38;4914024;29;20248;-74
2022/06/04 06:03:25;;;;;;;;;;;;;;;20.45;100.00;98690.81;4921068;29;19957;-73
2022/06/04 06:05:52;;;;;;;;;;;;;;;20.55;100.00;98701.06;4921776;29;19954;-74
2022/06/04 06:08:20;;;;;;;;;;;;;;;20.71;100.00;98698.09;4920986;29;19954;-74
2022/06/04 06:10:47;;;;;;;;;;;;;;;20.88;100.00;98700.31;4921236;29;19945;-74
2022/06/04 06:13:14;;;;;;;;;;;;;;;21.03;100.00;98702.72;4920696;29;19955;-74
2022/06/04 06:15:42;;;;;;;;;;;;;;;21.28;100.00;98694.13;4920675;29;19959;-74
2022/06/04 06:18:09;;;;;;;;;;;;;;;21.57;100.00;98706.06;4920080;29;20253;-74
2022/06/04 06:20:41;;;;;;;;;;;;;;;21.70;100.00;98712.50;4916470;29;19960;-73
2022/06/04 06:23:10;;;;;;;;;;;;;;;21.83;100.00;98709.59;4913587;29;19956;-73
2022/06/04 06:25:37;;;;;;;;;;;;;;;21.92;100.00;98707.63;4920771;29;19956;-73
2022/06/04 06:28:04;;;;;;;;;;;;;;;22.04;100.00;98711.66;4920187;29;20009;-73
2022/06/04 06:30:32;;;;;;;;;;;;;;;21.95;100.00;98705.91;4920139;29;19966;-74
2022/06/04 06:32:59;;;;;;;;;;;;;;;22.07;100.00;98710.75;4918070;29;19979;-74
2022/06/04 06:35:26;;;;;;;;;;;;;;;22.24;100.00;98707.22;4907820;29;19959;-74
2022/06/04 06:37:54;;;;;;;;;;;;;;;22.44;100.00;98708.88;4906912;29;19956;-74
2022/06/04 06:40:21;;;;;;;;;;;;;;;22.61;100.00;98707.38;4920931;29;19957;-74
2022/06/04 06:42:48;;;;;;;;;;;;;;;22.75;100.00;98707.63;4918646;29;19953;-74
2022/06/04 06:45:16;;;;;;;;;;;;;;;22.89;100.00;98712.72;4911267;29;20068;-74
2022/06/04 06:47:44;;;;;;;;;;;;;;;22.94;100.00;98713.38;4919957;29;19958;-74
2022/06/04 06:50:12;;;;;;;;;;;;;;;23.07;100.00;98705.47;4920207;29;19976;-73
2022/06/04 06:52:40;;;;;;;;;;;;;;;23.17;100.00;98707.88;4920104;29;19976;-74
2022/06/04 06:55:07;;;;;;;;;;;;;;;23.33;100.00;98713.28;4920256;29;20258;-74
2022/06/04 06:57:35;;;;;;;;;;;;;;;23.43;100.00;98716.97;4920337;29;19951;-74
2022/06/04 07:00:04;;;;;;;;;;;;;;;23.46;100.00;98710.31;4920134;29;20231;-74
2022/06/04 07:02:31;;;;;;;;;;;;;;;23.66;100.00;98707.00;4920510;29;19960;-74
2022/06/04 07:04:58;;;;;;;;;;;;;;;23.76;100.00;98708.59;4906797;29;19963;-73
2022/06/04 07:07:26;;;;;;;;;;;;;;;23.86;100.00;98716.69;4920620;29;20229;-73
2022/06/04 07:09:54;;;;;;;;;;;;;;;23.91;100.00;98724.59;4919463;29;20392;-73
2022/06/04 07:12:22;;;;;;;;;;;;;;;24.01;100.00;98713.97;4920016;29;20358;-73
2022/06/04 07:14:49;;;;;;;;;;;;;;;23.99;100.00;98717.28;4919998;29;19956;-73
2022/06/04 07:17:16;;;;;;;;;;;;;;;24.10;100.00;98728.25;4920118;29;20335;-73
2022/06/04 07:19:43;;;;;;;;;;;;;;;24.15;100.00;98727.59;4920205;29;20220;-73
2022/06/04 07:22:11;;;;;;;;;;;;;;;24.27;100.00;98726.63;4920437;29;19959;-73
2022/06/04 07:24:38;;;;;;;;;;;;;;;24.05;100.00;98721.09;4920279;29;19952;-73
2022/06/04 07:27:06;;;;;;;;;;;;;;;24.18;100.00;98729.50;4920187;29;19958;-73
2022/06/04 07:29:34;;;;;;;;;;;;;;;24.12;100.00;98726.50;4921297;29;19951;-73
2022/06/04 07:32:02;;;;;;;;;;;;;;;24.12;100.00;98729.34;4923485;29;19979;-73
2022/06/04 07:34:30;;;;;;;;;;;;;;;24.21;100.00;98739.97;4924350;29;20029;-73
2022/06/04 07:36:57;;;;;;;;;;;;;;;24.31;100.00;98735.81;4923024;29;19950;-73
2022/06/04 07:39:25;;;;;;;;;;;;;;;24.18;100.00;98720.94;4917458;29;19951;-73
2022/06/04 07:41:53;;;;;;;;;;;;;;;24.27;100.00;98720.91;4923421;29;19982;-73
2022/06/04 07:44:22;;;;;;;;;;;;;;;24.08;100.00;98719.38;4912848;29;20248;-73
2022/06/04 07:46:50;;;;;;;;;;;;;;;24.13;100.00;98718.72;4922684;29;19977;-73
2022/06/04 07:49:19;;;;;;;;;;;;;;;24.08;100.00;98723.03;4915835;29;20242;-73
2022/06/04 07:51:47;;;;;;;;;;;;;;;24.25;100.00;98725.53;4904652;29;19978;-73
2022/06/04 07:54:15;;;;;;;;;;;;;;;24.21;100.00;98717.09;4904381;29;20243;-73
2022/06/04 07:56:43;;;;;;;;;;;;;;;24.37;100.00;98713.09;4904442;29;19953;-73
2022/06/04 07:59:13;;;;;;;;;;;;;;;24.53;100.00;98722.09;4904386;29;19959;-73
2022/06/04 08:01:40;;;;;;;;;;;;;;;24.64;100.00;98730.16;4913567;29;19952;-73
2022/06/04 08:04:09;;;;;;;;;;;;;;;24.72;100.00;98734.28;4916716;29;19957;-72
2022/06/04 08:06:36;;;;;;;;;;;;;;;24.69;100.00;98716.00;4918925;29;19959;-73
2022/06/04 08:09:04;;;;;;;;;;;;;;;24.62;100.00;98718.41;4922657;29;19958;-73
2022/06/04 08:11:31;;;;;;;;;;;;;;;24.63;100.00;98717.94;4927816;29;19954;-73
2022/06/04 08:14:11;;;;;;;;;;;;;;;24.68;100.00;98725.06;4919612;29;19953;-73
2022/06/04 08:16:44;;;;;;;;;;;;;;;24.79;100.00;98731.88;4922555;29;20396;-73
2022/06/04 08:22:22;;;;;;;;;;;;;;;24.63;100.00;98728.56;4861960;29;19969;-74
2022/06/04 08:24:49;;;;;;;;;;;;;;;24.67;100.00;98724.25;4866135;29;19953;-75
2022/06/04 08:27:17;;;;;;;;;;;;;;;24.47;100.00;98726.09;4874907;29;19953;-74
2022/06/04 08:29:44;;;;;;;;;;;;;;;24.53;100.00;98727.81;4869805;29;19954;-74
2022/06/04 08:32:16;;;;;;;;;;;;;;;24.49;100.00;98717.81;4866647;29;19976;-74
2022/06/04 08:34:43;;;;;;;;;;;;;;;24.64;100.00;98727.31;4865627;29;19957;-74
2022/06/04 08:37:10;;;;;;;;;;;;;;;24.73;100.00;98732.97;4865956;29;19957;-74
2022/06/04 08:39:38;;;;;;;;;;;;;;;24.76;100.00;98737.75;4877368;29;19953;-74
2022/06/04 08:42:05;;;;;;;;;;;;;;;24.56;100.00;98732.56;4865656;29;19953;-74
2022/06/04 08:44:41;;;;;;;;;;;;;;;24.68;100.00;98727.91;4870822;29;19950;-74
2022/06/04 08:47:16;;;;;;;;;;;;;;;24.67;100.00;98729.22;4866356;29;19953;-73
2022/06/04 08:49:48;;;;;;;;;;;;;;;24.68;100.00;98733.63;4871198;29;19956;-73
2022/06/04 08:52:29;;;;;;;;;;;;;;;24.74;100.00;98726.00;4857326;29;19970;-73
2022/06/04 08:57:44;;;;;;;;;;;;;;;24.91;100.00;98720.69;4847938;29;19955;-73
2022/06/04 09:00:16;;;;;;;;;;;;;;;24.91;100.00;98720.69;4847967;29;19951;-73
2022/06/04 09:03:03;;;;;;;;;;;;;;;24.92;100.00;98717.34;4848736;29;19957;-73
2022/06/04 09:05:37;;;;;;;;;;;;;;;24.96;100.00;98722.91;4852409;29;19952;-73
2022/06/04 09:08:09;;;;;;;;;;;;;;;25.11;100.00;98723.78;4865691;29;19953;-73
2022/06/04 09:10:41;;;;;;;;;;;;;;;24.91;100.00;98727.22;4866724;29;20261;-73
2022/06/04 09:13:17;;;;;;;;;;;;;;;24.99;100.00;98722.69;4865621;29;19973;-73
2022/06/04 09:15:48;;;;;;;;;;;;;;;24.94;100.00;98720.53;4865356;29;20338;-73
2022/06/04 09:18:18;;;;;;;;;;;;;;;24.77;100.00;98713.63;4865647;29;20127;-73
2022/06/04 09:20:47;;;;;;;;;;;;;;;24.98;100.00;98724.00;4864872;29;19985;-73
2022/06/04 09:23:28;;;;;;;;;;;;;;;25.06;100.00;98728.09;4865094;29;19960;-73
2022/06/04 09:25:58;;;;;;;;;;;;;;;25.07;100.00;98729.66;4867333;29;20214;-72
2022/06/04 09:28:34;;;;;;;;;;;;;;;25.17;100.00;98731.19;4869315;29;20245;-73
2022/06/04 09:31:08;;;;;;;;;;;;;;;25.07;100.00;98732.53;4864444;29;19956;-74
2022/06/04 09:33:49;;;;;;;;;;;;;;;25.11;100.00;98732.34;4845668;29;19965;-73
2022/06/04 09:36:18;;;;;;;;;;;;;;;25.22;100.00;98729.72;4846463;29;19984;-73
2022/06/04 09:38:52;;;;;;;;;;;;;;;25.17;100.00;98731.19;4861439;29;19959;-73
2022/06/04 09:41:22;;;;;;;;;;;;;;;25.15;100.00;98728.03;4868276;29;19964;-73
2022/06/04 09:43:58;;;;;;;;;;;;;;;25.26;100.00;98730.38;4866851;29;19953;-73
2022/06/04 09:46:26;;;;;;;;;;;;;;;25.31;100.00;98721.06;4867212;29;19950;-73
2022/06/04 09:48:55;;;;;;;;;;;;;;;25.17;100.00;98730.41;4876280;29;19959;-73
2022/06/04 09:51:24;;;;;;;;;;;;;;;25.36;100.00;98715.47;4868085;29;19952;-73
2022/06/04 09:54:03;;;;;;;;;;;;;;;25.33;100.00;98725.03;4867431;29;20388;-73
2022/06/04 09:56:32;;;;;;;;;;;;;;;25.38;100.00;98727.22;4863968;29;20355;-73
2022/06/04 09:59:19;;;;;;;;;;;;;;;25.44;100.00;98724.50;4868733;29;19960;-74
2022/06/04 10:01:53;;;;;;;;;;;;;;;25.52;100.00;98722.09;4873595;29;19962;-73
2022/06/04 10:04:21;;;;;;;;;;;;;;;25.51;100.00;98720.50;4862669;29;20027;-74
2022/06/04 10:06:48;;;;;;;;;;;;;;;25.56;100.00;98723.47;4863210;29;19953;-73
2022/06/04 10:12:07;;;;;;;;;;;;;;;25.73;100.00;98718.88;4862123;29;19953;-73
2022/06/04 10:14:37;;;;;;;;;;;;;;;25.87;100.00;98721.00;4860012;29;19977;-73
2022/06/04 10:17:21;;;;;;;;;;;;;;;25.90;100.00;98716.34;4860709;29;19954;-73
2022/06/04 10:19:52;;;;;;;;;;;;;;;25.83;100.00;98719.59;4861744;29;19950;-73
2022/06/04 10:22:20;;;;;;;;;;;;;;;25.27;100.00;98723.34;4866404;29;19975;-73
2022/06/04 10:24:57;;;;;;;;;;;;;;;25.41;100.00;98717.69;4863821;29;19958;-73
2022/06/04 10:27:24;;;;;;;;;;;;;;;25.43;100.00;98711.47;4861647;29;19965;-73
2022/06/04 10:29:56;;;;;;;;;;;;;;;25.41;100.00;98709.09;4871460;29;19958;-73
2022/06/04 10:32:23;;;;;;;;;;;;;;;25.58;100.00;98700.09;4865059;29;20339;-72
2022/06/04 10:35:23;;;;;;;;;;;;;;;25.50;100.00;98696.81;4864023;29;19949;-72
2022/06/04 10:37:53;;;;;;;;;;;;;;;25.69;100.00;98691.72;4855033;29;19956;-72
2022/06/04 10:40:23;;;;;;;;;;;;;;;25.79;100.00;98699.75;4847390;29;19951;-73
2022/06/04 10:42:51;;;;;;;;;;;;;;;25.82;100.00;98692.25;4863525;29;20346;-73
2022/06/04 10:45:37;;;;;;;;;;;;;;;25.93;100.00;98693.25;4865202;29;19960;-71
2022/06/04 10:48:24;;;;;;;;;;;;;;;26.10;100.00;98700.06;4872431;29;19960;-72
2022/06/04 10:53:44;;;;;;;;;;;;;;;25.80;100.00;98701.31;4864296;29;19966;-72
2022/06/04 10:56:15;;;;;;;;;;;;;;;25.72;100.00;98694.41;4863855;29;20728;-73
2022/06/04 10:58:50;;;;;;;;;;;;;;;25.22;100.00;98687.59;4854638;29;19957;-78
2022/06/04 11:01:31;;;;;;;;;;;;;;;25.43;100.00;98697.16;4871115;29;20351;-73
2022/06/04 11:04:19;;;;;;;;;;;;;;;25.59;100.00;98693.06;4865878;29;20407;-73
2022/06/04 11:06:49;;;;;;;;;;;;;;;25.53;100.00;98697.91;4857605;29;20367;-72
2022/06/04 11:09:25;;;;;;;;;;;;;;;25.68;100.00;98693.00;4870051;29;19948;-73
2022/06/04 11:11:56;;;;;;;;;;;;;;;25.60;100.00;98686.06;4852535;29;19954;-73
2022/06/04 11:14:41;;;;;;;;;;;;;;;25.49;100.00;98692.34;4872187;29;19968;-74
2022/06/04 11:17:19;;;;;;;;;;;;;;;25.64;100.00;98686.66;4878322;29;19964;-73
2022/06/04 11:19:55;;;;;;;;;;;;;;;25.71;100.00;98680.56;4879263;29;19953;-74
2022/06/04 11:22:29;;;;;;;;;;;;;;;25.85;100.00;98676.91;4869071;29;19954;-75
2022/06/04 11:25:00;;;;;;;;;;;;;;;25.83;100.00;98683.16;4867467;29;20351;-76
2022/06/04 11:27:41;;;;;;;;;;;;;;;25.89;100.00;98675.47;4858196;29;19960;-75
2022/06/04 11:30:13;;;;;;;;;;;;;;;25.83;100.00;98665.97;4870763;29;20268;-74
2022/06/04 11:32:59;;;;;;;;;;;;;;;25.84;100.00;98667.56;4867263;29;19954;-74
2022/06/04 11:35:26;;;;;;;;;;;;;;;25.92;100.00;98665.09;4872635;29;19954;-74
2022/06/04 11:38:09;;;;;;;;;;;;;;;25.94;100.00;98656.78;4869776;29;19954;-74
2022/06/04 11:40:42;;;;;;;;;;;;;;;26.03;100.00;98656.69;4868128;29;19954;-74
2022/06/04 11:43:18;;;;;;;;;;;;;;;25.88;100.00;98658.75;4868631;29;19970;-74
2022/06/04 11:46:04;;;;;;;;;;;;;;;25.87;100.00;98655.09;4864985;29;19954;-74
2022/06/04 11:48:40;;;;;;;;;;;;;;;25.96;100.00;98657.88;4866120;29;20243;-73
2022/06/04 11:51:18;;;;;;;;;;;;;;;25.87;100.00;98649.34;4864998;29;19999;-74
2022/06/04 11:53:58;;;;;;;;;;;;;;;25.82;100.00;98641.44;4860183;29;19964;-75
2022/06/04 11:56:28;;;;;;;;;;;;;;;25.83;100.00;98643.03;4871256;29;19979;-74
2022/06/04 11:59:06;;;;;;;;;;;;;;;25.96;100.00;98646.41;4863693;29;19956;-74
2022/06/04 12:01:37;;;;;;;;;;;;;;;25.97;100.00;98642.25;4860651;29;19949;-74
2022/06/04 12:04:15;;;;;;;;;;;;;;;26.00;100.00;98647.00;4869182;29;20254;-74
2022/06/04 12:07:03;;;;;;;;;;;;;;;26.12;100.00;98635.78;4865851;29;20388;-74
2022/06/04 12:09:36;;;;;;;;;;;;;;;26.15;100.00;98632.69;4870074;29;19955;-74
2022/06/04 12:12:10;;;;;;;;;;;;;;;26.21;100.00;98635.66;4866638;29;19953;-74
2022/06/04 12:14:56;;;;;;;;;;;;;;;26.21;100.00;98627.84;4866269;29;19974;-74
2022/06/04 12:17:26;;;;;;;;;;;;;;;26.11;100.00;98634.97;4868938;29;19960;-74
2022/06/04 12:26:19;;;;;;;;;;;;;;;26.20;100.00;98626.25;4865472;29;19957;-74
2022/06/04 12:28:46;;;;;;;;;;;;;;;26.24;100.00;98626.84;4863162;29;19978;-74
2022/06/04 12:31:24;;;;;;;;;;;;;;;26.26;100.00;98621.44;4867330;29;19958;-75
2022/06/04 12:33:52;;;;;;;;;;;;;;;26.22;100.00;98620.03;4867459;29;19967;-74
2022/06/04 12:36:27;;;;;;;;;;;;;;;26.21;100.00;98616.38;4867668;29;20278;-75
2022/06/04 12:39:02;;;;;;;;;;;;;;;26.17;100.00;98614.97;4867521;29;19962;-75
2022/06/04 12:41:43;;;;;;;;;;;;;;;26.17;100.00;98612.91;4867348;29;19954;-74
2022/06/04 12:44:37;;;;;;;;;;;;;;;26.19;100.00;98612.44;4868091;29;19956;-74
2022/06/04 12:47:20;;;;;;;;;;;;;;;26.21;100.00;98604.13;4865709;29;20278;-74
2022/06/04 12:49:52;;;;;;;;;;;;;;;26.31;100.00;98605.59;4863140;29;19963;-75
2022/06/04 12:52:35;;;;;;;;;;;;;;;26.30;100.00;98601.94;4867712;29;19960;-74
2022/06/04 12:55:15;;;;;;;;;;;;;;;26.29;100.00;98606.06;4867752;29;19986;-74
2022/06/04 12:57:43;;;;;;;;;;;;;;;26.32;100.00;98602.22;4866417;29;19953;-74
2022/06/04 13:00:13;;;;;;;;;;;;;;;26.34;100.00;98590.25;4865896;29;19979;-74
2022/06/04 13:02:42;;;;;;;;;;;;;;;26.29;100.00;98597.47;4867409;29;19972;-74
2022/06/04 13:05:18;;;;;;;;;;;;;;;26.23;100.00;98593.75;4873851;29;20247;-74
2022/06/04 13:08:03;;;;;;;;;;;;;;;26.29;100.00;98602.44;4866288;29;19952;-74
2022/06/04 13:10:43;;;;;;;;;;;;;;;26.26;100.00;98597.69;4864005;29;20253;-74
2022/06/04 13:13:13;;;;;;;;;;;;;;;26.20;100.00;98602.53;4866836;29;19952;-74
2022/06/04 13:15:43;;;;;;;;;;;;;;;26.10;100.00;98598.97;4866385;29;19975;-74
2022/06/04 13:18:40;;;;;;;;;;;;;;;26.20;100.00;98591.88;4865495;29;19949;-73
2022/06/04 13:21:14;;;;;;;;;;;;;;;26.21;100.00;98582.00;4865033;29;20262;-73
2022/06/04 13:23:44;;;;;;;;;;;;;;;26.35;100.00;98581.16;4867498;29;19955;-74
2022/06/04 13:26:17;;;;;;;;;;;;;;;26.41;100.00;98587.75;4865607;29;20360;-74
2022/06/04 13:28:46;;;;;;;;;;;;;;;26.24;100.00;98591.66;4864723;29;19957;-74
2022/06/04 13:31:23;;;;;;;;;;;;;;;26.17;100.00;98598.56;4865935;29;19964;-74
2022/06/04 13:33:52;;;;;;;;;;;;;;;26.16;100.00;98585.56;4848871;29;19969;-73
2022/06/04 13:36:22;;;;;;;;;;;;;;;26.08;100.00;98590.06;4866276;29;19962;-74
2022/06/04 13:38:51;;;;;;;;;;;;;;;26.20;100.00;98589.00;4862043;29;19958;-74
2022/06/04 13:42:00;;;;;;;;;;;;;;;26.24;100.00;98591.66;4866073;29;19961;-74
2022/06/04 13:44:06;;;;;;;;;;;;;;;26.30;100.00;98589.66;4868491;29;20251;-74
2022/06/04 13:46:34;;;;;;;;;;;;;;;26.40;100.00;98586.19;4866769;29;19961;-74
2022/06/04 13:49:10;;;;;;;;;;;;;;;26.37;100.00;98601.53;4865452;29;19956;-74
2022/06/04 13:51:39;;;;;;;;;;;;;;;26.29;100.00;98594.59;4866141;29;19955;-74
2022/06/04 13:54:19;;;;;;;;;;;;;;;26.28;100.00;98590.19;4865212;29;19949;-74
2022/06/04 13:56:46;;;;;;;;;;;;;;;26.24;100.00;98585.94;4863630;29;19952;-74
2022/06/04 13:59:25;;;;;;;;;;;;;;;26.25;100.00;98578.91;4882299;29;19962;-74
2022/06/04 14:01:58;;;;;;;;;;;;;;;26.28;100.00;98575.84;4880095;29;19956;-77
2022/06/04 14:07:13;;;;;;;;;;;;;;;26.17;100.00;98567.03;4884984;29;19952;-76
2022/06/04 14:09:51;;;;;;;;;;;;;;;26.15;100.00;98563.91;4884276;29;20353;-74
2022/06/04 14:12:30;;;;;;;;;;;;;;;26.12;100.00;98564.88;4884167;29;19952;-75
2022/06/04 14:14:58;;;;;;;;;;;;;;;26.08;100.00;98559.34;4885953;29;19969;-74
2022/06/04 14:17:40;;;;;;;;;;;;;;;26.07;100.00;98559.81;4886995;29;19947;-73
2022/06/04 14:20:22;;;;;;;;;;;;;;;26.04;100.00;98573.06;4882792;29;19951;-74
2022/06/04 14:22:49;;;;;;;;;;;;;;;26.06;100.00;98572.59;4883878;29;19979;-73
2022/06/04 14:25:22;;;;;;;;;;;;;;;26.09;100.00;98563.00;4883255;29;20532;-74
2022/06/04 14:28:22;;;;;;;;;;;;;;;26.18;100.00;98554.31;4884729;29;20347;-74
2022/06/04 14:31:02;;;;;;;;;;;;;;;26.20;100.00;98565.25;4862130;29;20357;-74
2022/06/04 14:33:31;;;;;;;;;;;;;;;26.19;100.00;98561.59;4878782;29;19960;-74
2022/06/04 14:36:00;;;;;;;;;;;;;;;26.20;100.00;98563.19;4877648;29;19969;-75
2022/06/04 14:38:29;;;;;;;;;;;;;;;26.22;100.00;98560.63;4883192;29;19967;-74
2022/06/04 14:41:09;;;;;;;;;;;;;;;26.18;100.00;98565.78;4884113;29;19952;-74
2022/06/04 14:43:59;;;;;;;;;;;;;;;26.09;100.00;98563.75;4881725;29;19948;-76
2022/06/04 14:46:45;;;;;;;;;;;;;;;26.13;100.00;98565.69;4860848;29;19955;-74
2022/06/04 14:49:32;;;;;;;;;;;;;;;26.25;100.00;98573.16;4886798;29;19968;-75
2022/06/04 14:52:12;;;;;;;;;;;;;;;26.25;100.00;98564.56;4886826;29;19962;-77
2022/06/04 14:54:40;;;;;;;;;;;;;;;26.28;100.00;98552.91;4886525;29;20286;-76
2022/06/04 14:57:14;;;;;;;;;;;;;;;26.28;100.00;98552.91;4887242;29;19956;-75
2022/06/04 15:00:00;;;;;;;;;;;;;;;26.28;100.00;98561.50;4881123;29;19961;-75
2022/06/04 15:02:51;;;;;;;;;;;;;;;26.21;100.00;98559.06;4881123;29;19977;-75
2022/06/04 15:05:24;;;;;;;;;;;;;;;26.18;100.00;98550.66;4875709;29;19958;-74
2022/06/04 15:08:00;;;;;;;;;;;;;;;26.12;100.00;98553.41;4884095;29;19968;-75
2022/06/04 15:10:28;;;;;;;;;;;;;;;26.09;100.00;98551.53;4883323;29;20721;-77
2022/06/04 15:13:12;;;;;;;;;;;;;;;26.20;100.00;98548.06;4881847;29;19949;-74
2022/06/04 15:16:08;;;;;;;;;;;;;;;26.25;100.00;98547.38;4880764;29;20389;-74
2022/06/04 15:18:41;;;;;;;;;;;;;;;26.22;100.00;98545.47;4880359;29;20332;-76
2022/06/04 15:21:14;;;;;;;;;;;;;;;26.25;100.00;98539.56;4879507;29;19971;-75
2022/06/04 15:24:01;;;;;;;;;;;;;;;26.24;100.00;98534.34;4879414;29;19951;-73
2022/06/04 15:26:41;;;;;;;;;;;;;;;26.22;100.00;98536.88;4881655;29;20252;-74
2022/06/04 15:34:56;;;;;;;;;;;;;;;26.04;100.00;98520.72;4874979;29;19978;-73
2022/06/04 15:37:31;;;;;;;;;;;;;;;25.96;100.00;98514.59;4880634;29;20037;-73
2022/06/04 15:40:08;;;;;;;;;;;;;;;25.93;100.00;98512.72;4881477;29;19959;-73
2022/06/04 15:42:44;;;;;;;;;;;;;;;25.88;100.00;98513.41;4885011;29;19961;-73
2022/06/04 15:45:31;;;;;;;;;;;;;;;25.83;100.00;98511.25;4884457;29;19954;-73
2022/06/04 15:48:02;;;;;;;;;;;;;;;25.80;100.00;98514.31;4881389;29;19957;-73
2022/06/04 15:56:28;;;;;;;;;;;;;;;25.74;100.00;98508.50;4880378;29;19971;-73
2022/06/04 15:58:57;;;;;;;;;;;;;;;25.82;100.00;98503.91;4884136;29;19958;-73
2022/06/04 16:01:33;;;;;;;;;;;;;;;25.91;100.00;98503.03;4881587;29;20343;-74
2022/06/04 16:04:18;;;;;;;;;;;;;;;26.09;100.00;98497.06;4886249;29;19948;-74
2022/06/04 16:07:14;;;;;;;;;;;;;;;26.12;100.00;98498.19;4885392;29;20346;-74
2022/06/04 16:09:42;;;;;;;;;;;;;;;26.08;100.00;98492.63;4887233;29;19949;-74
2022/06/04 16:12:13;;;;;;;;;;;;;;;26.00;100.00;98497.19;4888689;29;19962;-74
2022/06/04 16:14:58;;;;;;;;;;;;;;;25.89;100.00;98497.81;4889871;29;19957;-73
2022/06/04 16:17:44;;;;;;;;;;;;;;;25.74;100.00;98497.03;4879046;29;20292;-73
2022/06/04 16:20:12;;;;;;;;;;;;;;;25.67;100.00;98482.31;4887790;29;19955;-74
2022/06/04 16:22:44;;;;;;;;;;;;;;;25.72;100.00;98476.69;4886400;29;19955;-73
2022/06/04 16:25:22;;;;;;;;;;;;;;;25.60;100.00;98482.72;4892878;29;19964;-73
2022/06/04 16:28:01;;;;;;;;;;;;;;;25.60;100.00;98479.88;4891222;29;19987;-73
2022/06/04 16:30:30;;;;;;;;;;;;;;;25.60;100.00;98485.59;4900789;29;19950;-73
2022/06/04 16:33:04;;;;;;;;;;;;;;;25.57;100.00;98478.78;4888232;29;20101;-73
2022/06/04 16:35:47;;;;;;;;;;;;;;;25.53;100.00;98481.03;4888674;29;20351;-74
2022/06/04 16:38:38;;;;;;;;;;;;;;;25.51;100.00;98491.41;4887012;29;19957;-73
2022/06/04 16:44:00;;;;;;;;;;;;;;;25.39;100.00;98493.25;4884627;29;20245;-73
2022/06/04 16:46:30;;;;;;;;;;;;;;;25.37;100.00;98493.75;4892817;29;19952;-72
2022/06/04 16:49:45;;;;;;;;;;;;;;;25.35;100.00;98499.19;4888677;29;20250;-73
2022/06/04 16:51:55;;;;;;;;;;;;;;;25.32;100.00;98494.44;4881077;29;19956;-73
2022/06/04 16:54:24;;;;;;;;;;;;;;;25.21;100.00;98494.22;4885105;29;19965;-73
2022/06/04 16:56:52;;;;;;;;;;;;;;;25.18;100.00;98492.38;4893301;29;19969;-73
2022/06/04 16:59:20;;;;;;;;;;;;;;;25.13;100.00;98490.19;4888761;29;19955;-77
2022/06/04 17:01:56;;;;;;;;;;;;;;;25.12;100.00;98502.91;4896158;29;20363;-73
2022/06/04 17:04:28;;;;;;;;;;;;;;;25.13;100.00;98503.72;4868897;29;19955;-72
2022/06/04 17:06:57;;;;;;;;;;;;;;;25.13;100.00;98498.78;4883542;29;19954;-73
2022/06/04 17:09:48;;;;;;;;;;;;;;;25.13;100.00;98504.50;4882524;29;19956;-74
2022/06/04 17:12:27;;;;;;;;;;;;;;;25.17;100.00;98499.38;4876812;29;20247;-76
2022/06/04 17:14:55;;;;;;;;;;;;;;;25.21;100.00;98508.53;4883880;29;20248;-70
2022/06/04 17:17:23;;;;;;;;;;;;;;;25.34;100.00;98497.59;4883505;29;20281;-70
2022/06/04 17:20:03;;;;;;;;;;;;;;;25.39;100.00;98498.97;4883309;29;19961;-70
2022/06/04 17:22:34;;;;;;;;;;;;;;;25.37;100.00;98499.50;4880262;29;19964;-69
2022/06/04 17:25:08;;;;;;;;;;;;;;;25.38;100.00;98503.91;4883713;29;19952;-71
2022/06/04 17:27:48;;;;;;;;;;;;;;;25.39;100.00;98508.38;4879223;29;19961;-71
2022/06/04 17:30:22;;;;;;;;;;;;;;;25.37;100.00;98492.97;4882826;29;19954;-70
2022/06/04 17:32:58;;;;;;;;;;;;;;;25.25;100.00;98491.97;4881592;29;19954;-71
2022/06/04 17:35:45;;;;;;;;;;;;;;;25.26;100.00;98489.91;4883552;29;19961;-70
2022/06/04 17:38:19;;;;;;;;;;;;;;;25.23;100.00;98490.88;4879701;29;19957;-71
2022/06/04 17:40:51;;;;;;;;;;;;;;;25.22;100.00;98495.81;4883085;29;20356;-71
2022/06/04 17:43:19;;;;;;;;;;;;;;;25.14;100.00;98505.28;4882800;29;19961;-70
2022/06/04 17:45:47;;;;;;;;;;;;;;;25.10;100.00;98499.75;4883506;29;20227;-71
2022/06/04 17:48:16;;;;;;;;;;;;;;;25.05;100.00;98502.50;4883290;29;19962;-70
2022/06/04 17:50:44;;;;;;;;;;;;;;;25.01;100.00;98504.78;4882747;29;19955;-70
2022/06/04 17:53:13;;;;;;;;;;;;;;;24.93;100.00;98497.84;4883077;29;19962;-74
2022/06/04 17:55:42;;;;;;;;;;;;;;;24.86;100.00;98487.56;4883226;29;19948;-79
2022/06/04 17:58:11;;;;;;;;;;;;;;;24.74;100.00;98483.69;4882697;29;19991;-72
2022/06/04 18:00:40;;;;;;;;;;;;;;;24.62;100.00;98490.44;4879841;29;19960;-73
2022/06/04 18:03:09;;;;;;;;;;;;;;;24.54;100.00;98497.81;4879128;29;19949;-72
2022/06/04 18:05:38;;;;;;;;;;;;;;;24.50;100.00;98490.69;4881982;29;19959;-72
2022/06/04 18:08:06;;;;;;;;;;;;;;;24.45;100.00;98488.50;4885526;29;19958;-77
2022/06/04 18:10:34;;;;;;;;;;;;;;;24.47;100.00;98489.59;4875535;29;19962;-72
2022/06/04 18:13:04;;;;;;;;;;;;;;;24.45;100.00;98495.03;4882253;29;19975;-72
2022/06/04 18:15:32;;;;;;;;;;;;;;;24.42;100.00;98498.03;4884213;29;19967;-72
2022/06/04 18:18:01;;;;;;;;;;;;;;;24.47;100.00;98491.66;4883623;29;19985;-72
2022/06/04 18:20:29;;;;;;;;;;;;;;;24.43;100.00;98491.06;4887725;29;19972;-72
2022/06/04 18:22:57;;;;;;;;;;;;;;;24.45;100.00;98494.22;4883415;29;19953;-73
2022/06/04 18:25:26;;;;;;;;;;;;;;;24.42;100.00;98500.91;4882560;29;19961;-72
2022/06/04 18:27:55;;;;;;;;;;;;;;;24.40;100.00;98500.59;4882755;29;19955;-72
2022/06/04 18:30:23;;;;;;;;;;;;;;;24.35;100.00;98496.34;4881745;29;19960;-72
2022/06/04 18:32:52;;;;;;;;;;;;;;;24.31;100.00;98512.88;4879510;29;19961;-72
2022/06/04 18:35:21;;;;;;;;;;;;;;;24.26;100.00;98504.19;4882685;29;19959;-72
2022/06/04 18:37:49;;;;;;;;;;;;;;;24.16;100.00;98500.56;4888154;29;19969;-72
2022/06/04 18:40:18;;;;;;;;;;;;;;;24.08;100.00;98496.50;4877444;29;20259;-72
2022/06/04 18:56:44;;;;;;;;;;;;;;;24.00;100.00;98506.66;4891138;29;19968;-71
2022/06/04 18:59:12;;;;;;;;;;;;;;;23.97;100.00;98517.00;4888451;29;19954;-71
2022/06/04 19:01:41;;;;;;;;;;;;;;;23.98;100.00;98517.78;4890073;29;19956;-71
2022/06/04 19:04:11;;;;;;;;;;;;;;;23.95;100.00;98528.13;4890179;29;19952;-71
2022/06/04 19:06:39;;;;;;;;;;;;;;;23.89;100.00;98521.47;4889404;29;19953;-71
2022/06/04 19:09:07;;;;;;;;;;;;;;;23.87;100.00;98517.50;4892148;29;19954;-71
2022/06/04 19:14:24;;;;;;;;;;;;;;;23.73;100.00;98527.56;4886657;29;19954;-71
2022/06/04 19:16:52;;;;;;;;;;;;;;;23.73;100.00;98524.72;4888582;29;19972;-71
2022/06/04 19:19:25;;;;;;;;;;;;;;;23.72;100.00;98539.47;4891576;29;19972;-71
2022/06/04 19:24:44;;;;;;;;;;;;;;;23.64;100.00;98535.38;4880416;29;19954;-71
2022/06/04 19:27:16;;;;;;;;;;;;;;;23.58;100.00;98540.94;4885432;29;19956;-70
2022/06/04 19:29:46;;;;;;;;;;;;;;;23.50;100.00;98551.88;4885762;29;19953;-70
2022/06/04 19:32:15;;;;;;;;;;;;;;;23.45;100.00;98554.63;4884653;29;19977;-70